Date,TemperatureHighF,TemperatureAvgF,TemperatureLowF,DewpointHighF,DewpointAvgF,DewpointLowF,HumidityHigh,HumidityAvg,HumidityLow,PressureMaxIn,PressureMinIn,WindSpeedMaxMPH,WindSpeedAvgMPH,GustSpeedMaxMPH,PrecipitationSumIn
2013-4-1,60.2,48.0,35.4,48.0,40.2,15.0,97,76,43,29.79,29.51,7,2,15,0.22
2013-4-2,42.7,34.9,27.7,19.0,15.1,10.0,66,46,30,29.96,29.80,9,2,15,0.00
2013-4-3,45.5,37.0,30.3,18.0,15.0,13.0,57,42,27,30.16,29.95,10,3,16,0.00
2013-4-4,54.7,40.1,28.0,31.0,21.4,15.0,80,50,23,30.31,30.07,6,2,9,0.00
2013-4-5,60.7,46.6,36.9,37.0,29.8,22.0,82,56,26,30.07,29.61,7,1,10,0.00
2013-4-6,47.4,39.8,30.6,26.0,15.1,5.0,81,40,18,30.32,29.87,7,2,11,0.00
2013-4-7,52.4,42.8,25.8,43.0,33.5,24.0,92,72,37,30.32,30.02,9,2,14,0.00
2013-4-8,68.3,54.5,43.2,45.0,42.9,40.0,96,69,37,30.09,29.96,7,1,8,0.00
2013-4-9,74.9,58.8,47.1,56.0,46.3,40.0,96,68,37,30.07,29.84,7,2,17,0.00
2013-4-10,67.9,53.8,44.6,52.0,46.8,43.0,96,79,55,29.98,29.84,3,1,7,0.25
2013-4-11,54.7,48.8,45.1,47.0,42.9,36.0,97,81,60,30.11,29.80,4,1,5,0.02
2013-4-12,45.0,40.6,37.8,38.0,35.5,31.0,96,83,65,30.13,29.73,10,1,12,0.49
2013-4-13,53.5,45.9,37.1,41.0,37.1,35.0,96,74,52,29.92,29.72,6,1,8,0.00
2013-4-14,53.6,45.2,36.2,41.0,33.7,28.0,91,67,40,30.20,29.92,6,1,10,0.00
2013-4-15,57.6,44.9,31.9,39.0,33.7,28.0,90,68,41,30.39,30.20,3,0,6,0.00
2013-4-16,60.0,49.5,34.7,50.0,42.8,34.0,97,79,59,30.40,30.10,7,2,14,0.00
2013-4-17,68.4,58.1,42.8,53.0,42.9,30.0,89,62,25,30.30,30.07,6,1,9,0.00
2013-4-18,64.3,50.6,36.3,48.0,38.2,30.0,96,67,35,30.40,30.14,7,1,12,0.00
2013-4-19,71.9,60.6,51.7,64.0,58.0,48.0,98,91,74,30.14,29.69,6,2,12,0.05
2013-4-20,62.6,54.3,45.8,62.0,44.2,29.0,97,72,45,30.19,29.61,5,2,17,0.47
2013-4-21,54.6,43.6,33.2,33.0,25.8,22.0,86,52,31,30.66,30.21,5,1,10,0.00
2013-4-22,53.9,42.5,30.7,36.0,31.9,27.0,94,69,38,30.71,30.56,6,1,13,0.00
2013-4-23,43.0,41.3,38.9,41.0,38.8,33.0,95,91,77,30.56,30.06,5,1,10,0.01
2013-4-24,73.0,52.6,41.9,53.0,45.7,41.0,96,80,46,30.06,29.82,6,2,11,0.00
2013-4-25,64.9,54.9,43.4,52.0,38.3,24.0,94,59,24,30.24,29.86,7,1,10,0.03
2013-4-26,67.5,51.4,38.2,42.0,37.2,28.0,90,61,34,30.40,30.24,4,1,9,0.00
2013-4-27,64.6,49.8,35.2,44.0,38.5,34.0,97,69,39,30.40,30.29,5,1,7,0.00
2013-4-28,69.0,52.7,35.7,44.0,37.2,30.0,96,61,32,30.33,30.24,4,1,11,0.00
2013-4-29,68.0,54.6,43.8,50.0,39.0,20.0,97,62,18,30.27,30.21,4,1,9,0.00
2013-4-30,71.9,54.1,36.6,44.0,34.5,23.0,95,55,18,30.34,30.24,6,1,7,0.00